30AR weather

Phalanx Airport
Greers Ferry, Arkansas, United States

Public forecast

Using degrees Fahrenheit for public forecast. Weather courtesy of forecast.io.

METAR (pilot weather report)

Closest report is Clinton Municipal Airport, 19.6 nm (36.3 km) W. Retrieved 2019/08/19 13:35 UTC (23 minutes ago):

KCCA 191335Z AUTO 00000KT 10SM CLR 25/22 A3003 RMK AO2

TAF (pilot weather forecast)

Forecast is more than 6 hours old.

Closest forecast is Little Rock Air Force Base, 38.0 nm (70.3 km) S. Retrieved 2019/08/19 07:06 UTC (7 hours ago):

TAF TAF KLRF 190700Z 1907/2013 VRB06KT 9999 FEW100 QNH2993INS BECMG 1915/1916 25009KT 9999 SCT035 QNH2993INS TX36/1921Z TN22/1911Z